Beaver Bay, MN

5:36 PM CST on February 09, 2016 (GMT -0600)
Silver Bay Municipal

Weather History for KBFW - May, 2013

Change the Weather History Date:

Monday, May 6, 2013

  Actual Average Record
Temperature  
Mean Temperature 44 °F -  
Max Temperature 62 °F 54 °F 82 °F (2000)
Min Temperature 26 °F 32 °F 26 °F (2006)
Degree Days  
Heating Degree Days 21    
Moisture  
Dew Point 34 °F    
Average Humidity 67    
Maximum Humidity 93    
Minimum Humidity 42    
Precipitation  
Precipitation 0.00 in - - ()
Sea Level Pressure  
Sea Level Pressure 30.08 in    
Wind  
Wind Speed 1 mph (South)    
Max Wind Speed 8 mph    
Max Gust Speed -    
Visibility 10 miles    
Events      
Averages and records for this station are not official NWS values.
T = Trace of Precipitation, MM = Missing Value Source: NWS Daily Summary

Daily Weather History Graph

Daily Weather History Graph

Search for Another Location

Airport or City:

Trip Planner

Search our weather history database for the weather conditions in past years. The results will help you decide how hot, cold, wet, or windy it might be!

Date:

Astronomy

May. 06, 2013 Rise Set
Actual Time 5:41 AM CDT 8:24 PM CDT
Civil Twilight 5:06 AM CDT 8:59 PM CDT
Nautical Twilight 4:22 AM CDT 9:43 PM CDT
Astronomical Twilight 3:30 AM CDT 10:35 PM CDT
Moon 3:56 AM CDT (5/6) 5:13 PM CDT (5/6)
Length of Visible Light 15h 52m
Length of Day
14h 42m
Waning Crescent, 11% of the Moon is Illuminated
May 6
Waning Crescent
May 9
New
May 17
First Quarter
May 24
Full
May 31
Last Quarter

Hourly Weather History & Observations

Time (CDT) Temp. Dew Point Humidity Pressure Visibility Wind Dir Wind Speed Gust Speed Precip Events Conditions
12:13 AM 30.2 °F 26.6 °F 86% 30.12 in 10.0 mi Calm Calm - N/A   Clear
12:33 AM 28.4 °F 26.6 °F 93% 30.11 in 10.0 mi Calm Calm - N/A   Clear
12:53 AM 28.4 °F 24.8 °F 86% 30.11 in 10.0 mi Calm Calm - N/A   Clear
1:13 AM 28.4 °F 24.8 °F 86% 30.12 in 10.0 mi Calm Calm - N/A   Clear
1:33 AM 28.4 °F 24.8 °F 86% 30.12 in 10.0 mi Calm Calm - N/A   Clear
1:53 AM 28.4 °F 24.8 °F 86% 30.11 in 10.0 mi Calm Calm - N/A   Clear
2:13 AM 28.4 °F 24.8 °F 86% 30.11 in 10.0 mi Calm Calm - N/A   Clear
2:33 AM 26.6 °F 24.8 °F 93% 30.11 in 10.0 mi Calm Calm - N/A   Clear
2:53 AM 26.6 °F 24.8 °F 93% 30.11 in 10.0 mi Calm Calm - N/A   Clear
3:13 AM 26.6 °F 24.8 °F 93% 30.11 in 10.0 mi Calm Calm - N/A   Clear
3:33 AM 26.6 °F 24.8 °F 93% 30.11 in 10.0 mi Calm Calm - N/A   Clear
3:53 AM 26.6 °F 24.8 °F 93% 30.11 in 10.0 mi Calm Calm - N/A   Clear
4:13 AM 26.6 °F 24.8 °F 93% 30.11 in 10.0 mi Calm Calm - N/A   Clear
4:33 AM 26.6 °F 24.8 °F 93% 30.11 in 10.0 mi Calm Calm - N/A   Clear
4:53 AM 26.6 °F 24.8 °F 93% 30.11 in 10.0 mi Calm Calm - N/A   Clear
5:13 AM 26.6 °F 24.8 °F 93% 30.11 in 10.0 mi Calm Calm - N/A   Clear
5:33 AM 26.6 °F 24.8 °F 93% 30.11 in 10.0 mi Calm Calm - N/A   Clear
5:53 AM 26.6 °F 24.8 °F 93% 30.11 in 10.0 mi Calm Calm - N/A   Clear
6:13 AM 28.4 °F 26.6 °F 93% 30.11 in 10.0 mi Calm Calm - N/A   Clear
6:33 AM 30.2 °F 26.6 °F 86% 30.11 in 10.0 mi Calm Calm - N/A   Clear
6:53 AM 33.8 °F 30.2 °F 87% 30.11 in 10.0 mi Calm Calm - N/A   Clear
7:13 AM 37.4 °F 33.8 °F 87% 30.11 in 10.0 mi Calm Calm - N/A   Clear
7:33 AM 41.0 °F 35.6 °F 81% 30.11 in 10.0 mi Calm Calm - N/A   Clear
7:53 AM 44.6 °F 37.4 °F 76% 30.11 in 10.0 mi Calm Calm - N/A   Clear
8:13 AM 48.2 °F 37.4 °F 66% 30.11 in 10.0 mi Calm Calm - N/A   Clear
8:33 AM 51.8 °F 39.2 °F 62% 30.12 in 10.0 mi Calm Calm - N/A   Clear
8:53 AM 53.6 °F 39.2 °F 58% 30.12 in 10.0 mi Calm Calm - N/A   Clear
9:14 AM 55.4 °F 39.2 °F 54% 30.11 in 10.0 mi South 3.5 mph - N/A   Clear
9:33 AM 55.4 °F 37.4 °F 51% 30.11 in 10.0 mi SSE 3.5 mph - N/A   Clear
9:53 AM 55.4 °F 37.4 °F 51% 30.11 in 10.0 mi South 3.5 mph - N/A   Clear
10:13 AM 55.4 °F 39.2 °F 54% 30.11 in 10.0 mi South 3.5 mph - N/A   Clear
10:33 AM 57.2 °F 39.2 °F 51% 30.10 in 10.0 mi Calm Calm - N/A   Clear
10:53 AM 59.0 °F 39.2 °F 48% 30.10 in 10.0 mi South 3.5 mph - N/A   Clear
11:14 AM 59.0 °F 37.4 °F 45% 30.10 in 10.0 mi SSE 5.8 mph - N/A   Clear
11:33 AM 57.2 °F 37.4 °F 48% 30.10 in 10.0 mi South 5.8 mph - N/A   Clear
11:53 AM 57.2 °F 39.2 °F 51% 30.10 in 10.0 mi South 8.1 mph - N/A   Clear
12:13 PM 55.4 °F 37.4 °F 51% 30.09 in 10.0 mi South 6.9 mph - N/A   Clear
12:33 PM 55.4 °F 37.4 °F 51% 30.09 in 10.0 mi SSE 5.8 mph - N/A   Clear
12:53 PM 55.4 °F 37.4 °F 51% 30.09 in 10.0 mi South 4.6 mph - N/A   Clear
1:13 PM 57.2 °F 39.2 °F 51% 30.08 in 10.0 mi South 5.8 mph - N/A   Clear
1:33 PM 57.2 °F 39.2 °F 51% 30.08 in 10.0 mi SSE 4.6 mph - N/A   Clear
1:53 PM 59.0 °F 39.2 °F 48% 30.08 in 10.0 mi South 4.6 mph - N/A   Clear
2:13 PM 60.8 °F 39.2 °F 45% 30.07 in 10.0 mi SSE 6.9 mph - N/A   Clear
2:33 PM 60.8 °F 39.2 °F 45% 30.07 in 10.0 mi SSE 5.8 mph - N/A   Clear
2:53 PM 59.0 °F 39.2 °F 48% 30.07 in 10.0 mi SSE 5.8 mph - N/A   Clear
3:13 PM 59.0 °F 39.2 °F 48% 30.06 in 10.0 mi SSE 4.6 mph - N/A   Clear
3:32 PM 60.8 °F 39.2 °F 45% 30.05 in 10.0 mi SSW 4.6 mph - N/A   Clear
3:53 PM 60.8 °F 39.2 °F 45% 30.05 in 10.0 mi Calm Calm - N/A   Clear
4:13 PM 60.8 °F 39.2 °F 45% 30.04 in 10.0 mi SSW 6.9 mph - N/A   Clear
4:33 PM 62.6 °F 39.2 °F 42% 30.03 in 10.0 mi South 5.8 mph - N/A   Clear
4:53 PM 62.6 °F 39.2 °F 42% 30.03 in 10.0 mi South 6.9 mph - N/A   Clear
5:13 PM 62.6 °F 39.2 °F 42% 30.03 in 10.0 mi South 5.8 mph - N/A   Clear
5:33 PM 62.6 °F 39.2 °F 42% 30.03 in 10.0 mi SSE 4.6 mph - N/A   Clear
5:53 PM 62.6 °F 39.2 °F 42% 30.03 in 10.0 mi South 5.8 mph - N/A   Clear
6:13 PM 60.8 °F 39.2 °F 45% 30.02 in 10.0 mi South 5.8 mph - N/A   Clear
6:33 PM 60.8 °F 39.2 °F 45% 30.02 in 10.0 mi South 5.8 mph - N/A   Clear
6:53 PM 60.8 °F 39.2 °F 45% 30.02 in 10.0 mi Calm Calm - N/A   Clear
7:13 PM 59.0 °F 39.2 °F 48% 30.03 in 10.0 mi Calm Calm - N/A   Clear
7:33 PM 55.4 °F 39.2 °F 54% 30.03 in 10.0 mi Calm Calm - N/A   Clear
7:53 PM 53.6 °F 37.4 °F 54% 30.03 in 10.0 mi Calm Calm - N/A   Clear
8:13 PM 51.8 °F 37.4 °F 58% 30.02 in 10.0 mi Calm Calm - N/A   Clear
8:33 PM 48.2 °F 37.4 °F 66% 30.02 in 10.0 mi Calm Calm - N/A   Clear
8:53 PM 46.4 °F 37.4 °F 71% 30.03 in 10.0 mi Calm Calm - N/A   Clear
9:13 PM 44.6 °F 37.4 °F 76% 30.03 in 10.0 mi Calm Calm - N/A   Clear
9:54 PM 42.8 °F 35.6 °F 76% 30.03 in 10.0 mi Calm Calm - N/A   Clear
10:13 PM 41.0 °F 35.6 °F 81% 30.03 in 10.0 mi Calm Calm - N/A   Clear
10:33 PM 39.2 °F 35.6 °F 87% 30.03 in 10.0 mi Calm Calm - N/A   Clear
10:53 PM 39.2 °F 33.8 °F 81% 30.04 in 10.0 mi Calm Calm - N/A   Clear
11:13 PM 37.4 °F 33.8 °F 87% 30.04 in 10.0 mi Calm Calm - N/A   Clear
11:33 PM 37.4 °F 33.8 °F 87% 30.03 in 10.0 mi Calm Calm - N/A   Clear
11:53 PM 37.4 °F 33.8 °F 87% 30.04 in 10.0 mi Calm Calm - N/A   Clear